Weather observations for the past three days for
Sulphur Springs, Sulphur Springs Municipal Airport
Metric (Imperial)
Date Time (cdt) Wind (kph) Vis. (km) Weather Sky Cond. Temperature (ºC) Relative Humidity Wind Chill (°C) Heat Index (°C) Pressure Precipitation (cm)
Air Dwpt 6 hour altimeter (cm) sea level (mb) 1 hr 3 hr 6 hr
Max. Min.
25 03:55 S 11 16.09 Fair CLR 27.7 23.4 77% 31 76.07 0.0
25 03:35 S 11 16.09 Fair CLR 28 23.2 75% 31 76.07 0.0
25 03:15 S 11 16.09 Fair CLR 27.7 23.4 77% 31 76.05 0.0
25 02:55 S 9 16.09 Fair CLR 27.8 23.2 76% 31 76.05 0.0
25 02:35 S 9 16.09 Fair CLR 28.1 23 74% 31 76.05 0.0
25 02:15 S 7 16.09 Fair CLR 28.1 23 74% 31 76.05 0.0
25 01:55 S 6 16.09 Fair CLR 28.4 23 73% 32 76.05 0.0
25 01:35 S 9 16.09 Fair CLR 28.5 23 72% 32 76.05 0.0
25 01:15 S 7 16.09 Fair CLR 28.6 23 72% 32 76.05 0.0
25 00:55 S 7 16.09 Fair CLR 28.8 22.8 34.8 28.5 70% 32 76.07 0.0
25 00:35 SE 6 16.09 Fair CLR 28.5 23 72% 32 76.05 0.0
25 00:15 Calm 16.09 Fair CLR 28.8 23 71% 32 76.05 0.0
24 23:55 SE 7 16.09 Fair CLR 29 22.9 70% 33 76.05 0.0
24 23:35 SE 6 16.09 Fair CLR 29.1 22.9 69% 33 76.05 0.0
24 23:15 SE 6 16.09 Fair CLR 29.2 22.8 68% 33 76.02 0.0
24 22:55 SE 6 16.09 Fair CLR 29.6 22.5 66% 33 76.02 0.0
24 22:35 SE 6 16.09 Fair CLR 30.2 21.7 60% 33 76.02 0.0
24 22:15 SE 7 16.09 Fair CLR 31 21.5 57% 34 76 0.0
24 21:55 S 9 16.09 Fair CLR 31.2 21.5 56% 34 75.97 0.0
24 21:35 SE 9 16.09 Fair CLR 31.6 21.3 54% 35 75.97 0.0
24 21:15 S 6 16.09 Fair CLR 31.8 21 53% 35 75.97 0.0
24 20:55 S 7 16.09 Fair CLR 32 21 52% 35 75.97 0.0
24 20:35 S 7 16.09 Fair CLR 32.6 20.9 50% 36 75.97 0.0
24 20:15 S 7 16.09 Fair CLR 33.2 20.4 47% 36 75.95 0.0
24 19:55 S 9 16.09 Fair CLR 33.8 20.1 45% 36 75.95 0.0
24 19:35 SE 7 16.09 Fair CLR 34.1 20 44% 37 75.95 0.0
24 19:15 SE 11 16.09 Fair CLR 34.6 19.5 41% 37 75.95 0.0
24 18:55 SE 13 16.09 Fair CLR 34.9 19.3 36.4 34.2 40% 37 75.95 0.0
24 18:35 S 9 16.09 Fair CLR 35.1 19.1 39% 37 75.97 0.0
24 18:15 S 9 16.09 Fair CLR 35.5 18.8 37% 37 75.97 0.0
24 17:55 SE 7 16.09 Partly Cloudy SCT060 SCT075 35.5 19.4 39% 38 75.97 0.0
24 17:35 S 9 16.09 Partly Cloudy SCT075 35.7 18.8 37% 38 76 0.0
24 17:15 SE 6 16.09 Fair CLR 34.8 19 39% 37 76.05 0.0
24 16:55 S 13 16.09 Fair CLR 35.9 19 37% 38 76.05 0.0
24 16:35 SE 13 16.09 Fair CLR 35.5 18.9 38% 37 76.05 0.0
24 16:15 S 11 16.09 Partly Cloudy SCT060 35.4 18.6 37% 37 76.07 0.0
24 15:55 S 9 16.09 Partly Cloudy SCT060 36.2 19.3 37% 39 76.07 0.0
24 15:35 SE 9 16.09 Partly Cloudy SCT060 SCT070 36 19.5 38% 38 76.1 0.0
24 15:15 S 9 16.09 Partly Cloudy SCT060 SCT070 35.8 19.2 38% 38 76.12 0.0
24 14:55 SE 7 G 19 16.09 Partly Cloudy SCT060 SCT070 35.4 19 38% 37 76.12 0.0
24 14:35 SE 15 16.09 Partly Cloudy SCT050 35 19.2 39% 37 76.15 0.0
24 14:15 S 13 16.09 Partly Cloudy SCT050 35.6 19.6 39% 38 76.15 0.0
24 13:55 SE 7 16.09 Partly Cloudy SCT050 35.1 19.9 41% 38 76.17 0.0
24 13:35 SE 9 16.09 Partly Cloudy SCT050 35.1 19.4 40% 37 76.17 0.0
24 13:15 S 13 16.09 Partly Cloudy SCT049 35 19.6 40% 37 76.2 0.0
24 12:55 SE 15 16.09 Partly Cloudy SCT047 34.4 19.6 34.7 26.5 42% 37 76.2 0.0
24 12:35 SW 13 16.09 Partly Cloudy SCT047 34.6 19.7 42% 37 76.2 0.0
24 12:15 SW 9 16.09 Partly Cloudy SCT047 34.2 20.5 45% 37 76.2 0.0
24 11:55 SW 13 16.09 Fair CLR 33.9 19.8 43% 36 76.23 0.0
24 11:35 SW 13 16.09 Fair CLR 34 20.5 45% 37 76.23 0.0
24 11:15 SW 17 16.09 Fair CLR 33.2 20.9 48% 36 76.23 0.0
24 10:55 SW 15 16.09 Fair CLR 33.1 20.3 47% 36 76.23 0.0
24 10:35 NW 13 16.09 Fair CLR 32.6 20.3 48% 35 76.2 0.0
24 10:15 SW 15 16.09 Fair CLR 32.3 21 51% 35 76.23 0.0
24 09:55 S 17 16.09 Fair CLR 31.9 21.5 54% 35 76.23 0.0
24 09:35 SW 9 16.09 Fair CLR 31.1 22.4 60% 35 76.2 0.0
24 09:15 SW 9 16.09 Fair CLR 30.4 22.7 63% 34 76.23 0.0
24 08:55 SW 7 16.09 Fair CLR 29.9 23.1 67% 34 76.23 0.0
24 08:35 S 9 16.09 Fair CLR 29 23 70% 33 76.2 0.0
24 08:15 SW 9 16.09 Fair CLR 28.7 23.3 73% 33 76.2 0.0
24 07:55 SW 7 16.09 Fair CLR 28.2 23.3 75% 32 76.2 0.0
24 07:35 Calm 16.09 Fair CLR 27.5 23.5 79% 31 76.17 0.0
24 07:15 Calm 16.09 Fair CLR 26.8 23.6 83% 30 76.17 0.0
24 06:55 Calm 16.09 Fair CLR 26.5 23.5 28.1 25 84% 29 76.15 0.0
24 06:35 Calm 16.09 Fair CLR 25.8 23.4 87% 27 76.15 0.0
24 06:15 S 6 16.09 Fair CLR 26 23.4 86% 28 76.12 0.0
24 05:55 S 6 16.09 Fair CLR 25.5 23.1 87% 27 76.1 0.0
24 05:35 Calm 16.09 Fair CLR 25 23.1 89% 26 76.1 0.0
24 05:15 Calm 16.09 Fair CLR 25.5 23.1 87% 27 76.1 0.0
24 04:55 Calm 16.09 Fair CLR 25.5 23.1 87% 27 76.1 0.0
24 04:35 Calm 16.09 Fair CLR 25.5 23 86% 27 76.07 0.0
24 04:15 Calm 16.09 Fair CLR 26.5 22.6 79% 29 76.07 0.0
24 03:55 S 6 16.09 Fair CLR 26.7 22.6 78% 29 76.07 0.0
24 03:35 S 7 16.09 Fair CLR 26.8 22.5 77% 29 76.07 0.0
24 03:15 S 7 16.09 Fair CLR 27.1 22.5 76% 30 76.07 0.0
24 02:55 S 7 16.09 Fair CLR 27.5 22.5 74% 30 76.07 0.0
24 02:35 S 7 16.09 Fair CLR 27.7 22.3 72% 30 76.07 0.0
24 02:15 S 7 16.09 Fair CLR 27.7 22.5 73% 31 76.07 0.0
24 01:55 Calm 16.09 Fair CLR 27.5 22.8 76% 30 76.07 0.0
24 01:35 S 7 16.09 Fair CLR 28 22.6 73% 31 76.07 0.0
24 01:15 S 6 16.09 Fair CLR 28 22.6 73% 31 76.07 0.0
24 00:55 Calm 16.09 Fair CLR 28 23 35 28 74% 31 76.1 0.0
24 00:35 S 9 16.09 Fair CLR 28.7 23 71% 32 76.07 0.0
24 00:15 S 9 16.09 Fair CLR 28.8 22.6 69% 32 76.07 0.0
23 23:55 S 9 16.09 Fair CLR 29.2 22.3 66% 32 76.07 0.0
23 23:35 S 9 16.09 Fair CLR 29.5 22 64% 33 76.07 0.0
23 23:15 S 9 16.09 Fair CLR 29.8 21.6 61% 33 76.07 0.0
23 22:55 S 11 16.09 Fair CLR 30 21.3 60% 33 76.07 0.0
23 22:35 S 9 16.09 Fair CLR 30.3 21.2 58% 33 76.05 0.0
23 22:15 S 9 16.09 Fair CLR 30.5 21 57% 33 76.05 0.0
23 21:55 S 7 16.09 Fair CLR 31 21.2 56% 34 76.05 0.0
23 21:35 S 7 16.09 Fair CLR 31.2 21.5 56% 34 76.02 0.0
23 21:15 S 9 16.09 Fair CLR 31.2 21.8 57% 35 76 0.0
23 20:55 S 6 16.09 Fair CLR 31.6 21.5 55% 35 76 0.0
23 20:35 S 7 16.09 Fair CLR 32 21.5 54% 35 76 0.0
23 19:35 S 9 16.09 Fair CLR 34 20.2 44% 37 76 0.0
23 18:35 S 11 16.09 Fair CLR 35.2 19.4 39% 37 76 0.0
23 18:15 S 7 16.09 Fair CLR 35.4 19.3 39% 38 76.02 0.0
23 17:55 S 11 16.09 Fair CLR 35.7 19.1 38% 38 76 0.0
23 17:35 SW 11 16.09 Fair CLR 35.5 19.3 38% 38 76.02 0.0
23 17:15 S 7 16.09 Mostly Cloudy BKN055 35.6 19.2 38% 38 76.02 0.0
23 16:55 SW 7 16.09 Mostly Cloudy BKN055 BKN070 36 19.4 38% 38 76.05 0.0
23 16:35 SW 11 16.09 Fair CLR 35.5 19.6 39% 38 76.05 0.0
23 16:15 Calm 16.09 Fair CLR 35.5 19.7 39% 38 76.05 0.0
23 15:55 SW 9 16.09 Partly Cloudy SCT055 35.7 19.8 39% 38 76.07 0.0
23 15:35 Calm 16.09 Partly Cloudy SCT055 35.5 20 40% 38 76.1 0.0
23 15:15 SW 9 16.09 Partly Cloudy SCT049 35.1 20.1 41% 38 76.1 0.0
23 14:55 W 6 16.09 Mostly Cloudy BKN049 35.5 20.1 40% 38 76.12 0.0
23 14:35 SW 13 16.09 Mostly Cloudy BKN047 BKN055 34.3 20.5 44% 37 76.15 0.0
23 14:15 S 6 16.09 Partly Cloudy SCT047 34.4 20.6 44% 37 76.17 0.0
23 13:55 SW 6 16.09 Partly Cloudy SCT045 35.2 20.5 42% 38 76.17 0.0
23 13:35 W 11 16.09 Partly Cloudy SCT045 SCT060 34.8 20.7 44% 38 76.2 0.0
23 13:15 SW 13 16.09 Partly Cloudy SCT043 SCT050 34 20.9 46% 37 76.2 0.0
23 12:55 SW 17 16.09 Partly Cloudy SCT043 34 21 34 25.5 47% 37 76.23 0.0
23 12:35 SW 15 G 28 16.09 Fair CLR 33.9 21.1 47% 37 76.23 0.0
23 12:15 SW 15 16.09 Fair CLR 33.9 20.8 46% 37 76.23 0.0
23 11:55 W 13 16.09 Fair CLR 33.2 21.1 49% 36 76.25 0.0
23 11:35 SW 20 16.09 Fair CLR 32.8 21.2 50% 36 76.25 0.0
23 11:15 SW 13 16.09 Fair CLR 32.3 21.7 54% 36 76.25 0.0
23 10:55 W 17 16.09 Fair CLR 32.1 21.6 54% 36 76.25 0.0
23 10:35 SW 20 16.09 Fair CLR 31.5 22 57% 35 76.25 0.0
23 10:15 SW 15 16.09 Fair CLR 30.9 22.5 61% 35 76.28 0.0
23 09:55 S 19 G 26 16.09 Fair CLR 30.6 22.5 62% 34 76.28 0.0
23 09:35 SW 13 16.09 Fair CLR 29.7 23 67% 34 76.28 0.0
23 09:15 SW 15 16.09 Fair CLR 29.3 23 69% 33 76.28 0.0
23 08:55 SW 17 16.09 Fair CLR 28.7 23 71% 32 76.28 0.0
23 08:35 SW 17 16.09 Fair CLR 28.4 23 73% 32 76.28 0.0
23 08:15 SW 15 16.09 Fair CLR 27.7 23.3 77% 31 76.25 0.0
23 07:55 SW 15 16.09 Fair CLR 27.1 23.2 79% 30 76.23 0.0
23 07:35 S 15 16.09 Fair CLR 26.5 23.2 82% 29 76.23 0.0
23 07:15 SW 13 16.09 Fair CLR 25.9 23 84% 28 76.2 0.0
23 06:55 W 13 16.09 Fair CLR 25.5 22.7 27.6 24.5 85% 27 76.2 0.0
23 06:35 S 7 16.09 Fair CLR 24.6 22.5 88% 25 76.17 0.0
23 05:55 S 11 16.09 Fair CLR 24.8 22.5 87% 25 76.15 0.0
23 05:35 S 9 16.09 Fair CLR 25 22.4 86% 26 76.15 0.0
23 05:15 S 6 16.09 Fair CLR 25.3 22.5 85% 26 76.15 0.0
23 04:55 S 6 16.09 Fair CLR 25 22.3 85% 26 76.15 0.0
23 04:35 S 6 16.09 Fair CLR 25.2 22.3 84% 26 76.12 0.0
23 04:15 S 6 16.09 Fair CLR 25.3 22.2 83% 26 76.12 0.0
23 03:55 S 6 16.09 Fair CLR 26 22 79% 28 76.12 0.0
23 03:35 S 6 16.09 Fair CLR 25.7 22.2 81% 27 76.15 0.0
23 03:15 S 6 16.09 Fair CLR 25.5 22.5 84% 27 76.15 0.0
23 02:55 Calm 16.09 Fair CLR 25.9 22.2 80% 27 76.17 0.0
23 02:35 Calm 16.09 Fair CLR 26 22 79% 28 76.17 0.0
23 02:15 S 6 16.09 Fair CLR 26.3 22 77% 28 76.17 0.0
23 01:55 S 7 16.09 Fair CLR 26.9 21.7 73% 29 76.17 0.0
23 01:35 S 7 16.09 Fair CLR 27.2 21.6 72% 29 76.2 0.0
23 01:15 S 9 16.09 Fair CLR 27.5 21.3 69% 30 76.2 0.0
23 00:55 S 11 16.09 Fair CLR 27.7 21.2 34 27.7 68% 30 76.2 0.0
23 00:35 S 11 16.09 Fair CLR 28 21.1 66% 30 76.23 0.0
23 00:15 S 9 16.09 Fair CLR 28.1 20.7 64% 30 76.23 0.0
22 23:55 S 11 16.09 Fair CLR 28.5 20.6 62% 31 76.23 0.0
22 23:35 S 11 16.09 Fair CLR 28.5 20.4 62% 30 76.23 0.0
22 23:10 S 9 16.09 Fair CLR 28.6 20.6 62% 31 76.23 0.0
22 22:55 S 13 16.09 Fair CLR 28.7 20.6 62% 31 76.23 0.0
22 22:35 S 9 16.09 Fair CLR 29 20.5 60% 31 76.23 0.0
22 22:15 S 6 16.09 Fair CLR 28.5 20.7 63% 31 76.23 0.0
22 21:55 S 6 16.09 Fair CLR 29.2 20.4 59% 31 76.2 0.0
22 21:35 S 6 16.09 Fair CLR 29.6 20.1 57% 32 76.17 0.0
22 21:15 S 7 16.09 Fair CLR 29.5 20.3 58% 32 76.17 0.0
22 20:55 S 6 16.09 Fair CLR 30.5 20 53% 32 76.17 0.0
22 20:35 S 6 16.09 Fair CLR 31 19.9 52% 33 76.17 0.0
22 20:15 S 9 16.09 Fair CLR 31.7 19.7 49% 34 76.17 0.0
22 19:55 SW 9 16.09 Fair CLR 32.5 19.4 46% 34 76.17 0.0
22 19:35 S 13 16.09 Fair CLR 33 18.9 43% 35 76.17 0.0
22 19:15 S 15 16.09 Fair CLR 33.4 18.5 41% 35 76.17 0.0
22 18:55 SW 11 16.09 Fair CLR 33.9 18.1 34.8 32.4 39% 35 76.17 0.0
22 18:35 S 13 16.09 Fair CLR 34 18.1 39% 35 76.17 0.0
22 18:15 S 13 16.09 Partly Cloudy SCT055 34.6 18 37% 36 76.17 0.0
22 17:55 SW 11 16.09 Partly Cloudy SCT055 34.5 18.1 38% 36 76.2 0.0
22 17:35 SW 13 16.09 Fair CLR 34.2 18.6 40% 36 76.2 0.0
22 17:15 S 13 16.09 Partly Cloudy SCT050 34.1 18.5 40% 35 76.2 0.0
22 16:55 SW 15 16.09 Partly Cloudy SCT050 34.3 18.7 40% 36 76.23 0.0
22 16:35 S 17 16.09 Partly Cloudy SCT050 34.3 19.1 41% 36 76.23 0.0
22 16:15 SW 15 0.00 NULL NULL 33.9 19 41% 36 76.23 0.0
22 15:55 S 13 16.09 Partly Cloudy SCT050 33.9 18.9 41% 36 76.25 0.0
22 15:35 S 13 16.09 Partly Cloudy SCT050 34.3 18.8 40% 36 76.25 0.0
22 15:15 S 13 16.09 Partly Cloudy SCT050 34.4 18.7 39% 36 76.28 0.0
22 14:55 S 11 G 17 16.09 Partly Cloudy SCT050 34.7 18.1 37% 36 76.3 0.0
22 14:35 S 15 16.09 Partly Cloudy SCT050 34.2 18.6 40% 36 76.3 0.0
22 14:15 SW 17 G 28 16.09 Fair CLR 34 18.5 40% 35 76.33 0.0
22 13:55 SW 17 16.09 Partly Cloudy SCT047 33.8 19.3 42% 36 76.35 0.0
22 13:35 SW 11 16.09 Mostly Cloudy BKN047 33.1 19.4 44% 35 76.35 0.0
22 13:15 S 13 16.09 Partly Cloudy SCT045 33.4 19.3 43% 35 76.38 0.0
22 12:55 W 15 16.09 Mostly Cloudy BKN043 32.6 20 33.4 25.1 47% 35 76.38 0.0
22 12:35 S 13 G 26 16.09 Partly Cloudy SCT041 33.4 19.3 43% 35 76.4 0.0
22 12:15 S 13 G 30 16.09 Partly Cloudy SCT041 32.6 20.2 48% 35 76.43 0.0
22 11:55 S 17 16.09 Partly Cloudy SCT037 32.4 20.1 48% 35 76.43 0.0
22 11:35 S 11 16.09 Mostly Cloudy BKN037 BKN055 BKN065 32.3 20.7 50% 35 76.45 0.0
22 11:15 SW 11 16.09 Partly Cloudy SCT035 SCT042 SCT055 31.8 20.8 52% 35 76.45 0.0
22 10:55 SW 13 16.09 Fair CLR 31.3 20.7 53% 34 76.48 0.0
22 10:35 SW 17 16.09 Fair CLR 31.1 21.5 57% 34 76.48 0.0
22 10:15 SW 13 16.09 Fair CLR 30.9 21.3 57% 34 76.48 0.0
22 09:55 SW 17 16.09 Fair CLR 30.4 21.3 58% 33 76.5 0.0
22 09:35 SW 17 16.09 Fair CLR 30.1 20.9 58% 33 76.5 0.0
22 09:15 SW 11 16.09 Fair CLR 29.6 21.7 63% 33 76.5 0.0
22 08:55 SW 13 16.09 Fair CLR 29 22.1 66% 32 76.5 0.0
22 08:35 SW 13 16.09 Fair CLR 28 22.6 73% 31 76.5 0.0
22 08:15 SW 15 16.09 Fair CLR 27.4 22.6 75% 30 76.48 0.0
22 07:55 SW 13 16.09 Fair CLR 27 22.3 76% 29 76.48 0.0
22 07:35 S 9 16.09 Fair CLR 26.4 22.2 78% 28 76.5 0.0
22 07:15 S 9 16.09 Fair CLR 25.6 21.9 80% 27 76.48 0.0
22 06:55 S 7 16.09 Fair CLR 25.1 21.6 26.1 22.5 81% 26 76.48 0.0
22 06:35 S 9 16.09 Fair CLR 25 21.5 81% 26 76.48 0.0
22 06:15 S 7 16.09 Fair CLR 24.6 21.2 81% 25 76.48 0.0
22 05:55 S 7 16.09 Fair CLR 24.6 20.9 80% 25 76.48 0.0
22 05:35 S 6 16.09 Fair CLR 24.8 20.8 79% 26 76.48 0.0
22 05:15 S 9 16.09 Fair CLR 25 20.7 77% 26 76.45 0.0
22 04:55 S 7 16.09 Fair CLR 23 21.4 91% 76.45 0.0
22 04:35 Calm 16.09 Fair CLR 23 21.5 91% 76.45 0.0
22 04:15 Calm 16.09 Fair CLR 23.5 21.2 87% 76.45 0.0
Date Time (cdt) Wind (kph) Vis. (km) Weather Sky Cond. Air Dwpt Max. Min. Relative Humidity Wind Chill (°C) Heat Index (°C) altimeter (cm) sea level (mb) 1 hr 3 hr 6 hr
6 hour
Temperature (ºC) Pressure Precipitation (cm)